sensor_id;sensor_type;location;lat;lon;timestamp;temperature;humidity
55083;DHT22;40978;52.850;6.506;2023-09-30T00:01:12;10.40;99.90
55083;DHT22;40978;52.850;6.506;2023-09-30T00:03:40;10.40;99.90
55083;DHT22;40978;52.850;6.506;2023-09-30T00:06:06;10.40;99.90
55083;DHT22;40978;52.850;6.506;2023-09-30T00:08:32;10.40;99.90
55083;DHT22;40978;52.850;6.506;2023-09-30T00:10:57;10.40;99.90
55083;DHT22;40978;52.850;6.506;2023-09-30T00:13:23;10.40;99.90
55083;DHT22;40978;52.850;6.506;2023-09-30T00:15:49;10.40;99.90
55083;DHT22;40978;52.850;6.506;2023-09-30T00:18:15;10.40;99.90
55083;DHT22;40978;52.850;6.506;2023-09-30T00:20:40;10.40;99.90
55083;DHT22;40978;52.850;6.506;2023-09-30T00:23:06;10.40;99.90
55083;DHT22;40978;52.850;6.506;2023-09-30T00:25:33;10.40;99.90
55083;DHT22;40978;52.850;6.506;2023-09-30T00:27:59;10.40;99.90
55083;DHT22;40978;52.850;6.506;2023-09-30T00:30:24;10.40;99.90
55083;DHT22;40978;52.850;6.506;2023-09-30T00:32:50;10.40;99.90
55083;DHT22;40978;52.850;6.506;2023-09-30T00:35:16;10.50;99.90
55083;DHT22;40978;52.850;6.506;2023-09-30T00:37:43;10.40;99.90
55083;DHT22;40978;52.850;6.506;2023-09-30T00:40:09;10.50;99.90
55083;DHT22;40978;52.850;6.506;2023-09-30T00:42:39;10.50;99.90
55083;DHT22;40978;52.850;6.506;2023-09-30T00:45:05;10.50;99.90
55083;DHT22;40978;52.850;6.506;2023-09-30T00:47:33;10.50;99.90
55083;DHT22;40978;52.850;6.506;2023-09-30T00:49:59;10.60;99.90
55083;DHT22;40978;52.850;6.506;2023-09-30T00:52:25;10.60;99.90
55083;DHT22;40978;52.850;6.506;2023-09-30T00:54:52;10.60;99.90
55083;DHT22;40978;52.850;6.506;2023-09-30T00:57:20;10.60;99.90
55083;DHT22;40978;52.850;6.506;2023-09-30T00:59:47;10.70;99.90
55083;DHT22;40978;52.850;6.506;2023-09-30T01:02:13;10.60;99.90
55083;DHT22;40978;52.850;6.506;2023-09-30T01:04:39;10.60;99.90
55083;DHT22;40978;52.850;6.506;2023-09-30T01:07:06;10.70;99.90
55083;DHT22;40978;52.850;6.506;2023-09-30T01:09:31;10.70;99.90
55083;DHT22;40978;52.850;6.506;2023-09-30T01:11:58;10.70;99.90
55083;DHT22;40978;52.850;6.506;2023-09-30T01:14:31;10.70;99.90
55083;DHT22;40978;52.850;6.506;2023-09-30T01:16:57;10.80;99.90
55083;DHT22;40978;52.850;6.506;2023-09-30T01:19:24;10.70;99.90
55083;DHT22;40978;52.850;6.506;2023-09-30T01:21:57;10.80;99.90
55083;DHT22;40978;52.850;6.506;2023-09-30T01:24:26;10.80;99.90
55083;DHT22;40978;52.850;6.506;2023-09-30T01:26:52;10.80;99.90
55083;DHT22;40978;52.850;6.506;2023-09-30T01:29:18;10.80;99.90
55083;DHT22;40978;52.850;6.506;2023-09-30T01:31:44;10.80;99.90
55083;DHT22;40978;52.850;6.506;2023-09-30T01:34:14;10.80;99.90
55083;DHT22;40978;52.850;6.506;2023-09-30T01:36:41;10.80;99.90
55083;DHT22;40978;52.850;6.506;2023-09-30T01:39:07;10.80;99.90
55083;DHT22;40978;52.850;6.506;2023-09-30T01:41:33;10.80;99.90
55083;DHT22;40978;52.850;6.506;2023-09-30T01:43:58;10.80;99.90
55083;DHT22;40978;52.850;6.506;2023-09-30T01:46:24;10.90;99.90
55083;DHT22;40978;52.850;6.506;2023-09-30T01:48:50;10.90;99.90
55083;DHT22;40978;52.850;6.506;2023-09-30T01:51:15;10.90;99.90
55083;DHT22;40978;52.850;6.506;2023-09-30T01:53:41;10.90;99.90
55083;DHT22;40978;52.850;6.506;2023-09-30T01:56:08;10.80;99.90
55083;DHT22;40978;52.850;6.506;2023-09-30T01:58:33;10.80;99.90
55083;DHT22;40978;52.850;6.506;2023-09-30T02:01:03;10.80;99.90
55083;DHT22;40978;52.850;6.506;2023-09-30T02:03:29;10.80;99.90
55083;DHT22;40978;52.850;6.506;2023-09-30T02:05:55;10.80;99.90
55083;DHT22;40978;52.850;6.506;2023-09-30T02:08:21;10.80;99.90
55083;DHT22;40978;52.850;6.506;2023-09-30T02:10:48;10.70;99.90
55083;DHT22;40978;52.850;6.506;2023-09-30T02:13:13;10.80;99.90
55083;DHT22;40978;52.850;6.506;2023-09-30T02:15:43;10.80;99.90
55083;DHT22;40978;52.850;6.506;2023-09-30T02:18:09;10.80;99.90
55083;DHT22;40978;52.850;6.506;2023-09-30T02:20:39;10.70;99.90
55083;DHT22;40978;52.850;6.506;2023-09-30T02:23:06;10.70;99.90
55083;DHT22;40978;52.850;6.506;2023-09-30T02:25:32;10.70;99.90
55083;DHT22;40978;52.850;6.506;2023-09-30T02:27:59;10.70;99.90
55083;DHT22;40978;52.850;6.506;2023-09-30T02:30:26;10.70;99.90
55083;DHT22;40978;52.850;6.506;2023-09-30T02:32:53;10.70;99.90
55083;DHT22;40978;52.850;6.506;2023-09-30T02:35:18;10.70;99.90
55083;DHT22;40978;52.850;6.506;2023-09-30T02:37:46;10.70;99.90
55083;DHT22;40978;52.850;6.506;2023-09-30T02:40:11;10.70;99.90
55083;DHT22;40978;52.850;6.506;2023-09-30T02:42:40;10.70;99.90
55083;DHT22;40978;52.850;6.506;2023-09-30T02:45:07;10.70;99.90
55083;DHT22;40978;52.850;6.506;2023-09-30T02:47:36;10.70;99.90
55083;DHT22;40978;52.850;6.506;2023-09-30T02:50:05;10.70;99.90
55083;DHT22;40978;52.850;6.506;2023-09-30T02:52:31;10.60;99.90
55083;DHT22;40978;52.850;6.506;2023-09-30T02:54:58;10.70;99.90
55083;DHT22;40978;52.850;6.506;2023-09-30T02:57:24;10.70;99.90
55083;DHT22;40978;52.850;6.506;2023-09-30T02:59:50;10.70;99.90
55083;DHT22;40978;52.850;6.506;2023-09-30T03:02:17;10.70;99.90
55083;DHT22;40978;52.850;6.506;2023-09-30T03:04:44;10.60;99.90
55083;DHT22;40978;52.850;6.506;2023-09-30T03:07:10;10.70;99.90
55083;DHT22;40978;52.850;6.506;2023-09-30T03:09:36;10.60;99.90
55083;DHT22;40978;52.850;6.506;2023-09-30T03:12:02;10.60;99.90
55083;DHT22;40978;52.850;6.506;2023-09-30T03:14:30;10.60;99.90
55083;DHT22;40978;52.850;6.506;2023-09-30T03:16:59;10.60;99.90
55083;DHT22;40978;52.850;6.506;2023-09-30T03:19:25;10.60;99.90
55083;DHT22;40978;52.850;6.506;2023-09-30T03:21:51;10.60;99.90
55083;DHT22;40978;52.850;6.506;2023-09-30T03:24:16;10.60;99.90
55083;DHT22;40978;52.850;6.506;2023-09-30T03:26:43;10.60;99.90
55083;DHT22;40978;52.850;6.506;2023-09-30T03:29:09;10.60;99.90
55083;DHT22;40978;52.850;6.506;2023-09-30T03:31:35;10.60;99.90
55083;DHT22;40978;52.850;6.506;2023-09-30T03:34:05;10.60;99.90
55083;DHT22;40978;52.850;6.506;2023-09-30T03:36:31;10.60;99.90
55083;DHT22;40978;52.850;6.506;2023-09-30T03:38:57;10.60;99.90
55083;DHT22;40978;52.850;6.506;2023-09-30T03:41:26;10.60;99.90
55083;DHT22;40978;52.850;6.506;2023-09-30T03:43:51;10.60;99.90
55083;DHT22;40978;52.850;6.506;2023-09-30T03:46:17;10.60;99.90
55083;DHT22;40978;52.850;6.506;2023-09-30T03:48:43;10.60;99.90
55083;DHT22;40978;52.850;6.506;2023-09-30T03:51:14;10.60;99.90
55083;DHT22;40978;52.850;6.506;2023-09-30T03:53:46;10.60;99.90
55083;DHT22;40978;52.850;6.506;2023-09-30T03:56:12;10.60;99.90
55083;DHT22;40978;52.850;6.506;2023-09-30T03:58:42;10.70;99.90
55083;DHT22;40978;52.850;6.506;2023-09-30T04:01:10;10.70;99.90
55083;DHT22;40978;52.850;6.506;2023-09-30T04:03:37;10.70;99.90
55083;DHT22;40978;52.850;6.506;2023-09-30T04:06:05;10.70;99.90
55083;DHT22;40978;52.850;6.506;2023-09-30T04:08:34;10.70;99.90
55083;DHT22;40978;52.850;6.506;2023-09-30T04:11:00;10.70;99.90
55083;DHT22;40978;52.850;6.506;2023-09-30T04:13:26;10.70;99.90
55083;DHT22;40978;52.850;6.506;2023-09-30T04:15:52;10.70;99.90
55083;DHT22;40978;52.850;6.506;2023-09-30T04:18:19;10.80;99.90
55083;DHT22;40978;52.850;6.506;2023-09-30T04:20:47;10.70;99.90
55083;DHT22;40978;52.850;6.506;2023-09-30T04:23:13;10.80;99.90
55083;DHT22;40978;52.850;6.506;2023-09-30T04:25:39;10.80;99.90
55083;DHT22;40978;52.850;6.506;2023-09-30T04:28:06;10.80;99.90
55083;DHT22;40978;52.850;6.506;2023-09-30T04:30:34;10.80;99.90
55083;DHT22;40978;52.850;6.506;2023-09-30T04:33:00;10.80;99.90
55083;DHT22;40978;52.850;6.506;2023-09-30T04:35:26;10.80;99.90
55083;DHT22;40978;52.850;6.506;2023-09-30T04:37:52;10.80;99.90
55083;DHT22;40978;52.850;6.506;2023-09-30T04:40:18;10.80;99.90
55083;DHT22;40978;52.850;6.506;2023-09-30T04:42:48;10.80;99.90
55083;DHT22;40978;52.850;6.506;2023-09-30T04:45:14;10.80;99.90
55083;DHT22;40978;52.850;6.506;2023-09-30T04:47:42;10.80;99.90
55083;DHT22;40978;52.850;6.506;2023-09-30T04:50:10;10.90;99.90
55083;DHT22;40978;52.850;6.506;2023-09-30T04:52:37;10.90;99.90
55083;DHT22;40978;52.850;6.506;2023-09-30T04:55:04;10.90;99.90
55083;DHT22;40978;52.850;6.506;2023-09-30T04:57:30;10.90;99.90
55083;DHT22;40978;52.850;6.506;2023-09-30T04:59:57;10.90;99.90
55083;DHT22;40978;52.850;6.506;2023-09-30T05:02:24;10.90;99.90
55083;DHT22;40978;52.850;6.506;2023-09-30T05:04:50;10.90;99.90
55083;DHT22;40978;52.850;6.506;2023-09-30T05:07:16;10.90;99.90
55083;DHT22;40978;52.850;6.506;2023-09-30T05:09:41;10.90;99.90
55083;DHT22;40978;52.850;6.506;2023-09-30T05:12:08;11.00;99.90
55083;DHT22;40978;52.850;6.506;2023-09-30T05:14:35;11.00;99.90
55083;DHT22;40978;52.850;6.506;2023-09-30T05:17:02;11.00;99.90
55083;DHT22;40978;52.850;6.506;2023-09-30T05:19:30;11.00;99.90
55083;DHT22;40978;52.850;6.506;2023-09-30T05:21:57;11.00;99.90
55083;DHT22;40978;52.850;6.506;2023-09-30T05:24:23;10.90;99.90
55083;DHT22;40978;52.850;6.506;2023-09-30T05:26:49;10.90;99.90
55083;DHT22;40978;52.850;6.506;2023-09-30T05:29:15;10.90;99.90
55083;DHT22;40978;52.850;6.506;2023-09-30T05:31:42;10.90;99.90
55083;DHT22;40978;52.850;6.506;2023-09-30T05:34:08;10.90;99.90
55083;DHT22;40978;52.850;6.506;2023-09-30T05:36:33;10.80;99.90
55083;DHT22;40978;52.850;6.506;2023-09-30T05:39:00;10.90;99.90
55083;DHT22;40978;52.850;6.506;2023-09-30T05:41:25;10.90;99.90
55083;DHT22;40978;52.850;6.506;2023-09-30T05:43:51;10.90;99.90
55083;DHT22;40978;52.850;6.506;2023-09-30T05:46:18;10.90;99.90
55083;DHT22;40978;52.850;6.506;2023-09-30T05:48:44;10.90;99.90
55083;DHT22;40978;52.850;6.506;2023-09-30T05:51:10;10.90;99.90
55083;DHT22;40978;52.850;6.506;2023-09-30T05:53:40;10.80;99.90
55083;DHT22;40978;52.850;6.506;2023-09-30T05:56:07;10.80;99.90
55083;DHT22;40978;52.850;6.506;2023-09-30T05:58:33;10.80;99.90
55083;DHT22;40978;52.850;6.506;2023-09-30T06:00:58;10.80;99.90
55083;DHT22;40978;52.850;6.506;2023-09-30T06:03:26;10.80;99.90
55083;DHT22;40978;52.850;6.506;2023-09-30T06:05:54;10.80;99.90
55083;DHT22;40978;52.850;6.506;2023-09-30T06:08:21;10.70;99.90
55083;DHT22;40978;52.850;6.506;2023-09-30T06:10:47;10.80;99.90
55083;DHT22;40978;52.850;6.506;2023-09-30T06:13:13;10.80;99.90
55083;DHT22;40978;52.850;6.506;2023-09-30T06:15:40;10.70;99.90
55083;DHT22;40978;52.850;6.506;2023-09-30T06:18:07;10.80;99.90
55083;DHT22;40978;52.850;6.506;2023-09-30T06:20:33;10.80;99.90
55083;DHT22;40978;52.850;6.506;2023-09-30T06:23:00;10.80;99.90
55083;DHT22;40978;52.850;6.506;2023-09-30T06:25:28;10.80;99.90
55083;DHT22;40978;52.850;6.506;2023-09-30T06:27:56;10.90;99.90
55083;DHT22;40978;52.850;6.506;2023-09-30T06:30:22;10.90;99.90
55083;DHT22;40978;52.850;6.506;2023-09-30T06:32:55;11.00;99.90
55083;DHT22;40978;52.850;6.506;2023-09-30T06:35:21;11.00;99.90
55083;DHT22;40978;52.850;6.506;2023-09-30T06:37:48;11.10;99.90
55083;DHT22;40978;52.850;6.506;2023-09-30T06:40:14;11.20;99.90
55083;DHT22;40978;52.850;6.506;2023-09-30T06:42:40;11.30;99.90
55083;DHT22;40978;52.850;6.506;2023-09-30T06:45:07;11.40;99.90
55083;DHT22;40978;52.850;6.506;2023-09-30T06:47:33;11.50;99.90
55083;DHT22;40978;52.850;6.506;2023-09-30T06:50:04;11.60;99.90
55083;DHT22;40978;52.850;6.506;2023-09-30T06:52:38;11.70;99.90
55083;DHT22;40978;52.850;6.506;2023-09-30T06:55:05;11.80;99.90
55083;DHT22;40978;52.850;6.506;2023-09-30T06:57:35;11.90;99.90
55083;DHT22;40978;52.850;6.506;2023-09-30T07:00:05;12.00;99.90
55083;DHT22;40978;52.850;6.506;2023-09-30T07:02:34;12.00;99.90
55083;DHT22;40978;52.850;6.506;2023-09-30T07:05:00;12.10;99.90
55083;DHT22;40978;52.850;6.506;2023-09-30T07:07:25;12.20;99.90
55083;DHT22;40978;52.850;6.506;2023-09-30T07:09:51;12.30;99.90
55083;DHT22;40978;52.850;6.506;2023-09-30T07:12:17;12.50;99.90
55083;DHT22;40978;52.850;6.506;2023-09-30T07:14:43;12.60;99.90
55083;DHT22;40978;52.850;6.506;2023-09-30T07:17:09;12.70;99.90
55083;DHT22;40978;52.850;6.506;2023-09-30T07:19:34;12.90;99.90
55083;DHT22;40978;52.850;6.506;2023-09-30T07:22:01;13.00;99.90
55083;DHT22;40978;52.850;6.506;2023-09-30T07:24:28;13.20;99.90
55083;DHT22;40978;52.850;6.506;2023-09-30T07:26:53;13.40;99.90
55083;DHT22;40978;52.850;6.506;2023-09-30T07:29:19;13.50;99.90
55083;DHT22;40978;52.850;6.506;2023-09-30T07:31:45;13.70;99.90
55083;DHT22;40978;52.850;6.506;2023-09-30T07:34:11;14.00;99.90
55083;DHT22;40978;52.850;6.506;2023-09-30T07:36:36;14.10;99.90
55083;DHT22;40978;52.850;6.506;2023-09-30T07:39:03;14.40;99.90
55083;DHT22;40978;52.850;6.506;2023-09-30T07:41:34;14.70;99.90
55083;DHT22;40978;52.850;6.506;2023-09-30T07:44:02;15.00;99.90
55083;DHT22;40978;52.850;6.506;2023-09-30T07:46:28;15.40;99.90
55083;DHT22;40978;52.850;6.506;2023-09-30T07:48:54;15.90;99.90
55083;DHT22;40978;52.850;6.506;2023-09-30T07:51:20;16.40;99.90
55083;DHT22;40978;52.850;6.506;2023-09-30T07:53:46;17.10;99.90
55083;DHT22;40978;52.850;6.506;2023-09-30T07:56:13;17.70;99.90
55083;DHT22;40978;52.850;6.506;2023-09-30T07:58:39;18.30;99.90
55083;DHT22;40978;52.850;6.506;2023-09-30T08:01:07;18.80;99.90
55083;DHT22;40978;52.850;6.506;2023-09-30T08:03:32;19.30;99.90
55083;DHT22;40978;52.850;6.506;2023-09-30T08:06:00;19.80;99.90
55083;DHT22;40978;52.850;6.506;2023-09-30T08:08:26;20.20;99.90
55083;DHT22;40978;52.850;6.506;2023-09-30T08:10:52;20.70;99.90
55083;DHT22;40978;52.850;6.506;2023-09-30T08:13:22;21.00;99.90
55083;DHT22;40978;52.850;6.506;2023-09-30T08:15:49;21.40;99.90
55083;DHT22;40978;52.850;6.506;2023-09-30T08:18:15;21.80;99.90
55083;DHT22;40978;52.850;6.506;2023-09-30T08:20:41;22.10;99.90
55083;DHT22;40978;52.850;6.506;2023-09-30T08:23:07;22.50;99.90
55083;DHT22;40978;52.850;6.506;2023-09-30T08:25:33;22.80;99.90
55083;DHT22;40978;52.850;6.506;2023-09-30T08:27:58;23.00;99.90
55083;DHT22;40978;52.850;6.506;2023-09-30T08:30:24;23.20;99.90
55083;DHT22;40978;52.850;6.506;2023-09-30T08:32:50;23.40;99.90
55083;DHT22;40978;52.850;6.506;2023-09-30T08:35:15;23.50;99.90
55083;DHT22;40978;52.850;6.506;2023-09-30T08:37:41;23.60;99.90
55083;DHT22;40978;52.850;6.506;2023-09-30T08:40:07;23.70;99.90
55083;DHT22;40978;52.850;6.506;2023-09-30T08:42:35;24.00;99.90
55083;DHT22;40978;52.850;6.506;2023-09-30T08:45:04;24.20;99.90
55083;DHT22;40978;52.850;6.506;2023-09-30T08:47:33;24.60;99.90
55083;DHT22;40978;52.850;6.506;2023-09-30T08:50:00;24.80;99.90
55083;DHT22;40978;52.850;6.506;2023-09-30T08:52:35;24.90;99.90
55083;DHT22;40978;52.850;6.506;2023-09-30T08:55:01;25.00;99.90
55083;DHT22;40978;52.850;6.506;2023-09-30T08:57:28;25.20;99.90
55083;DHT22;40978;52.850;6.506;2023-09-30T08:59:55;25.40;99.90
55083;DHT22;40978;52.850;6.506;2023-09-30T09:02:20;25.60;99.90
55083;DHT22;40978;52.850;6.506;2023-09-30T09:04:46;25.80;99.90
55083;DHT22;40978;52.850;6.506;2023-09-30T09:07:12;26.00;99.90
55083;DHT22;40978;52.850;6.506;2023-09-30T09:09:38;26.30;99.90
55083;DHT22;40978;52.850;6.506;2023-09-30T09:12:04;26.40;99.90
55083;DHT22;40978;52.850;6.506;2023-09-30T09:14:41;26.40;99.90
55083;DHT22;40978;52.850;6.506;2023-09-30T09:17:10;26.60;99.90
55083;DHT22;40978;52.850;6.506;2023-09-30T09:19:39;26.70;99.90
55083;DHT22;40978;52.850;6.506;2023-09-30T09:22:05;26.80;99.90
55083;DHT22;40978;52.850;6.506;2023-09-30T09:24:36;26.80;99.90
55083;DHT22;40978;52.850;6.506;2023-09-30T09:27:22;26.70;99.90
55083;DHT22;40978;52.850;6.506;2023-09-30T09:29:50;26.70;99.90
55083;DHT22;40978;52.850;6.506;2023-09-30T09:32:16;26.90;99.90
55083;DHT22;40978;52.850;6.506;2023-09-30T09:34:44;27.00;99.90
55083;DHT22;40978;52.850;6.506;2023-09-30T09:39:56;27.20;99.90
55083;DHT22;40978;52.850;6.506;2023-09-30T09:42:27;27.40;99.90
55083;DHT22;40978;52.850;6.506;2023-09-30T09:45:03;27.50;99.90
55083;DHT22;40978;52.850;6.506;2023-09-30T09:47:32;27.50;99.90
55083;DHT22;40978;52.850;6.506;2023-09-30T09:49:58;27.40;99.90
55083;DHT22;40978;52.850;6.506;2023-09-30T09:52:24;27.60;99.90
55083;DHT22;40978;52.850;6.506;2023-09-30T09:54:51;27.60;99.90
55083;DHT22;40978;52.850;6.506;2023-09-30T09:57:20;27.70;99.90
55083;DHT22;40978;52.850;6.506;2023-09-30T09:59:46;27.70;99.90
55083;DHT22;40978;52.850;6.506;2023-09-30T10:02:16;27.50;99.90
55083;DHT22;40978;52.850;6.506;2023-09-30T10:04:47;27.30;99.90
55083;DHT22;40978;52.850;6.506;2023-09-30T10:09:46;27.50;99.90
55083;DHT22;40978;52.850;6.506;2023-09-30T10:12:14;27.70;99.90
55083;DHT22;40978;52.850;6.506;2023-09-30T10:14:40;27.60;95.00
55083;DHT22;40978;52.850;6.506;2023-09-30T10:17:06;27.60;99.90
55083;DHT22;40978;52.850;6.506;2023-09-30T10:19:32;27.40;98.60
55083;DHT22;40978;52.850;6.506;2023-09-30T10:24:46;27.40;91.90
55083;DHT22;40978;52.850;6.506;2023-09-30T10:35:17;24.90;98.80
55083;DHT22;40978;52.850;6.506;2023-09-30T10:37:46;24.20;98.90
55083;DHT22;40978;52.850;6.506;2023-09-30T10:40:29;23.60;98.60
55083;DHT22;40978;52.850;6.506;2023-09-30T10:42:55;23.20;99.70
55083;DHT22;40978;52.850;6.506;2023-09-30T10:50:57;24.30;99.90
55083;DHT22;40978;52.850;6.506;2023-09-30T10:53:27;25.00;99.90
55083;DHT22;40978;52.850;6.506;2023-09-30T10:55:58;25.60;99.90
55083;DHT22;40978;52.850;6.506;2023-09-30T10:58:41;25.90;98.80
55083;DHT22;40978;52.850;6.506;2023-09-30T11:01:06;26.00;96.70
55083;DHT22;40978;52.850;6.506;2023-09-30T11:03:33;25.30;99.90
55083;DHT22;40978;52.850;6.506;2023-09-30T11:05:59;24.40;99.90
55083;DHT22;40978;52.850;6.506;2023-09-30T11:08:28;23.60;99.90
55083;DHT22;40978;52.850;6.506;2023-09-30T11:10:56;22.80;99.90
55083;DHT22;40978;52.850;6.506;2023-09-30T11:13:22;22.10;99.90
55083;DHT22;40978;52.850;6.506;2023-09-30T11:16:00;21.50;99.90
55083;DHT22;40978;52.850;6.506;2023-09-30T11:18:26;21.00;99.90
55083;DHT22;40978;52.850;6.506;2023-09-30T11:21:04;20.60;99.90
55083;DHT22;40978;52.850;6.506;2023-09-30T11:23:30;20.20;99.90
55083;DHT22;40978;52.850;6.506;2023-09-30T11:25:56;20.10;99.90
55083;DHT22;40978;52.850;6.506;2023-09-30T11:28:22;20.70;99.90
55083;DHT22;40978;52.850;6.506;2023-09-30T11:30:58;21.10;99.90
55083;DHT22;40978;52.850;6.506;2023-09-30T11:33:25;21.90;99.90
55083;DHT22;40978;52.850;6.506;2023-09-30T11:38:30;23.20;99.90
55083;DHT22;40978;52.850;6.506;2023-09-30T11:41:03;22.70;99.90
55083;DHT22;40978;52.850;6.506;2023-09-30T11:43:33;22.50;99.90
55083;DHT22;40978;52.850;6.506;2023-09-30T11:48:31;24.20;99.90
55083;DHT22;40978;52.850;6.506;2023-09-30T11:50:59;24.50;99.90
55083;DHT22;40978;52.850;6.506;2023-09-30T11:53:31;25.10;99.90
55083;DHT22;40978;52.850;6.506;2023-09-30T11:56:00;25.80;99.90
55083;DHT22;40978;52.850;6.506;2023-09-30T11:58:28;26.20;84.10
55083;DHT22;40978;52.850;6.506;2023-09-30T12:00:55;26.50;92.10
55083;DHT22;40978;52.850;6.506;2023-09-30T12:03:23;26.90;94.70
55083;DHT22;40978;52.850;6.506;2023-09-30T12:05:49;27.20;94.40
55083;DHT22;40978;52.850;6.506;2023-09-30T12:08:15;27.50;81.00
55083;DHT22;40978;52.850;6.506;2023-09-30T12:10:41;27.60;86.40
55083;DHT22;40978;52.850;6.506;2023-09-30T12:13:06;27.40;80.00
55083;DHT22;40978;52.850;6.506;2023-09-30T12:15:32;26.40;69.90
55083;DHT22;40978;52.850;6.506;2023-09-30T12:17:58;25.10;70.60
55083;DHT22;40978;52.850;6.506;2023-09-30T12:20:24;24.60;78.40
55083;DHT22;40978;52.850;6.506;2023-09-30T12:22:50;24.50;73.80
55083;DHT22;40978;52.850;6.506;2023-09-30T12:25:18;25.20;75.20
55083;DHT22;40978;52.850;6.506;2023-09-30T12:27:47;25.40;81.10
55083;DHT22;40978;52.850;6.506;2023-09-30T12:30:13;25.20;77.20
55083;DHT22;40978;52.850;6.506;2023-09-30T12:32:39;25.10;82.20
55083;DHT22;40978;52.850;6.506;2023-09-30T12:35:06;25.00;81.80
55083;DHT22;40978;52.850;6.506;2023-09-30T12:37:32;24.60;84.20
55083;DHT22;40978;52.850;6.506;2023-09-30T12:39:58;23.80;83.80
55083;DHT22;40978;52.850;6.506;2023-09-30T12:42:24;23.20;85.10
55083;DHT22;40978;52.850;6.506;2023-09-30T12:44:50;22.80;86.60
55083;DHT22;40978;52.850;6.506;2023-09-30T12:47:15;22.70;91.60
55083;DHT22;40978;52.850;6.506;2023-09-30T12:49:41;22.40;92.20
55083;DHT22;40978;52.850;6.506;2023-09-30T12:52:07;22.10;94.40
55083;DHT22;40978;52.850;6.506;2023-09-30T12:54:33;21.70;97.60
55083;DHT22;40978;52.850;6.506;2023-09-30T12:56:59;21.50;97.80
55083;DHT22;40978;52.850;6.506;2023-09-30T12:59:25;21.40;99.90
55083;DHT22;40978;52.850;6.506;2023-09-30T13:01:51;21.40;99.90
55083;DHT22;40978;52.850;6.506;2023-09-30T13:04:17;21.60;98.70
55083;DHT22;40978;52.850;6.506;2023-09-30T13:06:44;21.70;98.70
55083;DHT22;40978;52.850;6.506;2023-09-30T13:09:10;22.00;97.40
55083;DHT22;40978;52.850;6.506;2023-09-30T13:11:37;22.40;98.10
55083;DHT22;40978;52.850;6.506;2023-09-30T13:14:04;22.90;98.50
55083;DHT22;40978;52.850;6.506;2023-09-30T13:16:29;23.70;96.70
55083;DHT22;40978;52.850;6.506;2023-09-30T13:18:55;24.10;86.60
55083;DHT22;40978;52.850;6.506;2023-09-30T13:21:21;24.10;90.40
55083;DHT22;40978;52.850;6.506;2023-09-30T13:23:47;23.90;91.10
55083;DHT22;40978;52.850;6.506;2023-09-30T13:26:12;23.50;87.80
55083;DHT22;40978;52.850;6.506;2023-09-30T13:28:38;23.20;92.60
55083;DHT22;40978;52.850;6.506;2023-09-30T13:31:05;22.80;92.90
55083;DHT22;40978;52.850;6.506;2023-09-30T13:33:30;22.20;92.20
55083;DHT22;40978;52.850;6.506;2023-09-30T13:35:56;21.80;94.50
55083;DHT22;40978;52.850;6.506;2023-09-30T13:38:22;21.50;94.10
55083;DHT22;40978;52.850;6.506;2023-09-30T13:40:48;21.30;98.30
55083;DHT22;40978;52.850;6.506;2023-09-30T13:43:13;21.00;99.60
55083;DHT22;40978;52.850;6.506;2023-09-30T13:45:39;20.70;98.20
55083;DHT22;40978;52.850;6.506;2023-09-30T13:48:06;20.50;99.60
55083;DHT22;40978;52.850;6.506;2023-09-30T13:50:31;20.30;99.90
55083;DHT22;40978;52.850;6.506;2023-09-30T13:52:57;20.20;99.90
55083;DHT22;40978;52.850;6.506;2023-09-30T13:55:26;20.20;99.90
55083;DHT22;40978;52.850;6.506;2023-09-30T13:57:52;20.20;99.90
55083;DHT22;40978;52.850;6.506;2023-09-30T14:00:17;20.30;99.90
55083;DHT22;40978;52.850;6.506;2023-09-30T14:02:44;20.30;99.90
55083;DHT22;40978;52.850;6.506;2023-09-30T14:05:10;20.20;99.90
55083;DHT22;40978;52.850;6.506;2023-09-30T14:07:36;20.10;99.90
55083;DHT22;40978;52.850;6.506;2023-09-30T14:10:03;20.10;99.90
55083;DHT22;40978;52.850;6.506;2023-09-30T14:12:29;20.00;99.90
55083;DHT22;40978;52.850;6.506;2023-09-30T14:14:55;19.90;99.90
55083;DHT22;40978;52.850;6.506;2023-09-30T14:17:20;19.80;99.90
55083;DHT22;40978;52.850;6.506;2023-09-30T14:19:46;19.70;99.90
55083;DHT22;40978;52.850;6.506;2023-09-30T14:22:12;19.60;99.90
55083;DHT22;40978;52.850;6.506;2023-09-30T14:24:38;19.50;99.90
55083;DHT22;40978;52.850;6.506;2023-09-30T14:27:04;19.50;99.90
55083;DHT22;40978;52.850;6.506;2023-09-30T14:29:31;19.50;99.90
55083;DHT22;40978;52.850;6.506;2023-09-30T14:31:57;19.50;99.90
55083;DHT22;40978;52.850;6.506;2023-09-30T14:34:24;19.40;99.90
55083;DHT22;40978;52.850;6.506;2023-09-30T14:36:50;19.40;99.90
55083;DHT22;40978;52.850;6.506;2023-09-30T14:39:16;19.50;99.90
55083;DHT22;40978;52.850;6.506;2023-09-30T14:41:45;19.40;99.90
55083;DHT22;40978;52.850;6.506;2023-09-30T14:44:11;19.40;99.90
55083;DHT22;40978;52.850;6.506;2023-09-30T14:46:40;19.40;99.90
55083;DHT22;40978;52.850;6.506;2023-09-30T14:49:06;19.40;99.90
55083;DHT22;40978;52.850;6.506;2023-09-30T14:51:33;19.40;99.90
55083;DHT22;40978;52.850;6.506;2023-09-30T14:53:58;19.40;99.90
55083;DHT22;40978;52.850;6.506;2023-09-30T14:56:24;19.40;99.90
55083;DHT22;40978;52.850;6.506;2023-09-30T14:58:50;19.40;99.90
55083;DHT22;40978;52.850;6.506;2023-09-30T15:01:15;19.30;99.90
55083;DHT22;40978;52.850;6.506;2023-09-30T15:03:41;19.20;99.90
55083;DHT22;40978;52.850;6.506;2023-09-30T15:06:09;19.10;99.90
55083;DHT22;40978;52.850;6.506;2023-09-30T15:08:35;19.00;99.90
55083;DHT22;40978;52.850;6.506;2023-09-30T15:11:01;19.00;99.90
55083;DHT22;40978;52.850;6.506;2023-09-30T15:13:28;18.90;99.90
55083;DHT22;40978;52.850;6.506;2023-09-30T15:15:54;18.80;99.90
55083;DHT22;40978;52.850;6.506;2023-09-30T15:18:20;18.80;99.90
55083;DHT22;40978;52.850;6.506;2023-09-30T15:20:48;18.80;99.90
55083;DHT22;40978;52.850;6.506;2023-09-30T15:23:14;18.70;99.90
55083;DHT22;40978;52.850;6.506;2023-09-30T15:25:43;18.70;99.90
55083;DHT22;40978;52.850;6.506;2023-09-30T15:28:10;18.70;99.90
55083;DHT22;40978;52.850;6.506;2023-09-30T15:30:37;18.70;99.90
55083;DHT22;40978;52.850;6.506;2023-09-30T15:33:03;18.70;99.90
55083;DHT22;40978;52.850;6.506;2023-09-30T15:35:29;18.60;99.90
55083;DHT22;40978;52.850;6.506;2023-09-30T15:37:56;18.60;99.90
55083;DHT22;40978;52.850;6.506;2023-09-30T15:40:23;18.60;99.90
55083;DHT22;40978;52.850;6.506;2023-09-30T15:42:49;18.60;99.90
55083;DHT22;40978;52.850;6.506;2023-09-30T15:45:14;18.60;99.90
55083;DHT22;40978;52.850;6.506;2023-09-30T15:47:43;18.60;99.90
55083;DHT22;40978;52.850;6.506;2023-09-30T15:50:09;18.60;99.90
55083;DHT22;40978;52.850;6.506;2023-09-30T15:52:36;18.50;99.90
55083;DHT22;40978;52.850;6.506;2023-09-30T15:55:02;18.50;99.90